Ciempozuelos, Spain
Current Conditions -  °F | °C
As of 9:00 PM on Tuesday 27 Jan 2015 (Local Time) from LEGT Reporting Station
Clear Clear  
Wind Chill:   Ceiling: Unl
Heat Index:   Visibility: 6mi
Dew Point:   Wind: 0mph
Humidity: 61%   Direction: NA
Pressure: 30.3"   Gusts: NA
Location:  40.16°N, 3.62°W
Report Text: LEGT 272000Z 00000KT CAVOK 07/M00 Q1026
Loading
Personal Weather Stations






























Interactive Weather Map New forecast layout! Learn more

10-Day Weather Forecast

Advertisements
Track Severe Weather on mobile